Time;durP1;ratioP1;P1;durP2;ratioP2;P2;SDS_P1;SDS_P2;PMS_P1;PMS_P2;Temp;Humidity;BMP_temperature;BMP_pressure;BME280_temperature;BME280_humidity;BME280_pressure;Samples;Min_cycle;Max_cycle;Signal;HPM_P1;HPM_P2
2022/04/26 03:40:00;;;;;;;;;;;;;;;18.55;45.79;100509.80;102238;1335;61221;-82
2022/04/26 03:42:36;;;;;;;;;;;;;;;18.56;45.87;100513.33;102275;1335;73861;-82
2022/04/26 03:45:35;;;;;;;;;;;;;;;;;;;;;
2022/04/26 03:48:41;;;;;;;;;;;;;;;18.56;45.81;100514.03;101951;1339;61868;-83
2022/04/26 03:54:57;;;;;;;;;;;;;;;18.56;45.87;100518.30;101579;1350;73086;-87
2022/04/26 03:57:57;;;;;;;;;;;;;;;18.56;45.84;100518.45;101595;1348;74900;-90
2022/04/26 04:01:03;;;;;;;;;;;;;;;18.56;45.84;100520.94;101795;1341;59635;-82
2022/04/26 04:04:04;;;;;;;;;;;;;;;18.57;45.87;100524.13;101884;1341;61193;-88
2022/04/26 04:07:03;;;;;;;;;;;;;;;;;;;;;
2022/04/26 04:09:56;;;;;;;;;;;;;;;18.57;45.86;100535.71;102053;1336;74726;-81
2022/04/26 04:12:51;;;;;;;;;;;;;;;18.57;45.91;100531.76;102071;1338;61512;-86
2022/04/26 04:16:11;;;;;;;;;;;;;;;18.57;45.86;100535.67;101902;1338;61090;-82
2022/04/26 04:22:19;;;;;;;;;;;;;;;18.58;45.88;100544.90;101589;1348;75406;-87
2022/04/26 04:25:16;;;;;;;;;;;;;;;18.58;45.80;100549.51;101611;1340;61285;-83
2022/04/26 04:28:04;;;;;;;;;;;;;;;18.59;45.80;100555.55;101795;1340;61192;-82
2022/04/26 04:31:01;;;;;;;;;;;;;;;;;;;;;
2022/04/26 04:37:04;;;;;;;;;;;;;;;;;;;;;
2022/04/26 04:39:43;;;;;;;;;;;;;;;18.59;45.90;100565.86;102502;1332;61353;-83
2022/04/26 04:42:30;;;;;;;;;;;;;;;18.60;45.82;100570.64;102021;1338;73341;-84
2022/04/26 04:48:34;;;;;;;;;;;;;;;18.59;45.92;100578.86;101769;1344;61377;-83
2022/04/26 04:54:22;;;;;;;;;;;;;;;18.60;45.90;100583.10;101459;1350;71692;-86
2022/04/26 04:57:44;;;;;;;;;;;;;;;18.61;45.77;100585.76;101630;1347;75929;-83
2022/04/26 05:00:30;;;;;;;;;;;;;;;18.61;45.83;100588.23;101664;1341;61319;-84
2022/04/26 05:03:36;;;;;;;;;;;;;;;18.62;45.81;100595.46;101530;1350;61535;-85
2022/04/26 05:09:30;;;;;;;;;;;;;;;18.63;45.82;100599.84;100893;1357;75762;-81
2022/04/26 05:12:26;;;;;;;;;;;;;;;;;;;;;
2022/04/26 05:15:03;;;;;;;;;;;;;;;18.64;45.80;100604.44;101289;1354;61539;-82
2022/04/26 05:18:21;;;;;;;;;;;;;;;18.64;45.80;100604.42;101338;1354;71563;-84
2022/04/26 05:21:13;;;;;;;;;;;;;;;18.65;45.90;100610.61;101654;1344;74738;-85
2022/04/26 05:27:26;;;;;;;;;;;;;;;18.66;45.73;100607.69;101707;1347;61474;-86
2022/04/26 05:30:15;;;;;;;;;;;;;;;18.67;45.76;100612.06;101815;1341;72832;-87
2022/04/26 05:33:01;;;;;;;;;;;;;;;18.68;45.74;100617.22;101896;1341;75792;-85
2022/04/26 05:35:59;;;;;;;;;;;;;;;18.69;45.74;100617.33;101897;1341;61355;-83
2022/04/26 05:38:29;;;;;;;;;;;;;;;18.69;45.68;100617.13;101945;1338;61415;-86
2022/04/26 05:41:56;;;;;;;;;;;;;;;18.69;45.79;100618.73;102528;1329;71589;-78
2022/04/26 05:44:42;;;;;;;;;;;;;;;18.68;45.86;100624.66;103228;1320;75837;-81
2022/04/26 05:47:32;;;;;;;;;;;;;;;18.69;45.80;100632.48;104065;1313;62589;-86
2022/04/26 05:50:00;;;;;;;;;;;;;;;18.70;45.73;100638.45;104236;1316;62432;-83
2022/04/26 05:53:13;;;;;;;;;;;;;;;;;;;;;
2022/04/26 05:56:10;;;;;;;;;;;;;;;18.71;45.76;100646.58;103164;1320;73557;-81
2022/04/26 05:59:12;;;;;;;;;;;;;;;18.72;45.76;100646.36;103591;1319;61307;-89
2022/04/26 06:02:10;;;;;;;;;;;;;;;18.73;45.69;100644.52;103559;1318;61336;-83
2022/04/26 06:05:08;;;;;;;;;;;;;;;18.73;45.92;100641.08;103487;1320;72765;-83
2022/04/26 06:08:05;;;;;;;;;;;;;;;;;;;;;
2022/04/26 06:11:00;;;;;;;;;;;;;;;18.74;45.77;100634.94;102915;1325;61278;-81
2022/04/26 06:14:06;;;;;;;;;;;;;;;18.76;45.89;100636.66;102737;1326;61190;-81
2022/04/26 06:17:13;;;;;;;;;;;;;;;18.76;45.85;100640.21;102492;1332;74338;-87
2022/04/26 06:19:53;;;;;;;;;;;;;;;;;;;;;
2022/04/26 06:23:00;;;;;;;;;;;;;;;18.77;45.91;100638.19;102435;1332;61470;-81
2022/04/26 06:25:57;;;;;;;;;;;;;;;18.77;45.84;100638.70;102455;1335;61229;-83
2022/04/26 06:29:04;;;;;;;;;;;;;;;18.78;45.92;100643.86;102050;1338;74276;-84
2022/04/26 06:31:49;;;;;;;;;;;;;;;18.78;46.00;100640.82;101780;1344;73743;-83
2022/04/26 06:34:26;;;;;;;;;;;;;;;18.78;45.91;100645.94;102007;1338;61459;-83
2022/04/26 06:37:35;;;;;;;;;;;;;;;;;;;;;
2022/04/26 06:40:51;;;;;;;;;;;;;;;;;;;;;
2022/04/26 06:43:40;;;;;;;;;;;;;;;18.79;46.05;100648.35;101817;1337;75726;-82
2022/04/26 06:46:26;;;;;;;;;;;;;;;18.80;46.00;100648.14;101931;1338;61602;-84
2022/04/26 06:49:02;;;;;;;;;;;;;;;;;;;;;
2022/04/26 06:52:01;;;;;;;;;;;;;;;18.81;46.03;100651.85;99922;1335;3475843;-83
2022/04/26 06:57:30;;;;;;;;;;;;;;;18.81;46.04;100656.67;102267;1332;61336;-82
2022/04/26 07:00:31;;;;;;;;;;;;;;;18.81;46.12;100656.45;102269;1332;61809;-82
2022/04/26 07:03:07;;;;;;;;;;;;;;;18.81;46.04;100657.52;102266;1332;72584;-84
2022/04/26 07:05:59;;;;;;;;;;;;;;;18.82;46.13;100659.77;102395;1326;75877;-82
2022/04/26 07:08:33;;;;;;;;;;;;;;;18.83;46.12;100659.40;102742;1323;61238;-85
2022/04/26 07:11:21;;;;;;;;;;;;;;;;;;;;;
2022/04/26 07:14:17;;;;;;;;;;;;;;;18.83;46.11;100653.27;103226;1317;73798;-82
2022/04/26 07:17:05;;;;;;;;;;;;;;;;;;;;;
2022/04/26 07:20:23;;;;;;;;;;;;;;;18.84;46.08;100653.43;103407;1321;61283;-83
2022/04/26 07:23:16;;;;;;;;;;;;;;;18.84;46.18;100654.34;103603;1320;61487;-79
2022/04/26 07:29:17;;;;;;;;;;;;;;;18.84;46.11;100659.86;102303;1333;75131;-85
2022/04/26 07:32:08;;;;;;;;;;;;;;;18.84;46.16;100665.53;101928;1339;61422;-84
2022/04/26 07:35:22;;;;;;;;;;;;;;;;;;;;;
2022/04/26 07:38:15;;;;;;;;;;;;;;;18.84;46.10;100664.29;101787;1345;73941;-82
2022/04/26 07:41:12;;;;;;;;;;;;;;;;;;;;;
2022/04/26 07:43:59;;;;;;;;;;;;;;;;;;;;;
2022/04/26 07:46:44;;;;;;;;;;;;;;;18.85;46.13;100672.11;101787;1344;61945;-79
2022/04/26 07:49:30;;;;;;;;;;;;;;;18.84;46.16;100673.02;101740;1345;72342;-83
2022/04/26 07:52:53;;;;;;;;;;;;;;;18.84;46.11;100676.23;101740;1345;73526;-83
2022/04/26 07:55:52;;;;;;;;;;;;;;;;;;;;;
2022/04/26 07:58:40;;;;;;;;;;;;;;;18.84;46.12;100679.27;101927;1342;61956;-83
2022/04/26 08:01:35;;;;;;;;;;;;;;;18.84;46.20;100681.75;101908;1341;73029;-83
2022/04/26 08:04:50;;;;;;;;;;;;;;;18.85;46.16;100682.27;102122;1335;74778;-83
2022/04/26 08:08:16;;;;;;;;;;;;;;;18.85;46.20;100681.35;102753;1326;61223;-86
2022/04/26 08:11:12;;;;;;;;;;;;;;;;;;;;;
2022/04/26 08:13:59;;;;;;;;;;;;;;;18.85;46.19;100682.59;104194;1317;73216;-83
2022/04/26 08:17:16;;;;;;;;;;;;;;;;;;;;;
2022/04/26 08:20:12;;;;;;;;;;;;;;;;;;;;;
2022/04/26 08:23:02;;;;;;;;;;;;;;;18.86;46.17;100688.26;104203;1317;61328;-83
2022/04/26 08:29:07;;;;;;;;;;;;;;;18.86;46.17;100688.07;103161;1319;74017;-80
2022/04/26 08:31:55;;;;;;;;;;;;;;;;;;;;;
2022/04/26 08:35:01;;;;;;;;;;;;;;;18.87;46.09;100685.52;103332;1320;61274;-81
2022/04/26 08:37:57;;;;;;;;;;;;;;;;;;;;;
2022/04/26 08:40:49;;;;;;;;;;;;;;;18.87;46.18;100683.39;103368;1320;75996;-85
2022/04/26 08:43:53;;;;;;;;;;;;;;;18.87;46.20;100683.73;103360;1320;61031;-83
2022/04/26 08:52:28;;;;;;;;;;;;;;;18.87;46.29;100681.77;103280;1320;75848;-82
2022/04/26 08:55:25;;;;;;;;;;;;;;;18.87;46.24;100675.36;103346;1320;61394;-82
2022/04/26 08:58:29;;;;;;;;;;;;;;;18.86;46.22;100673.63;103205;1322;61438;-82
2022/04/26 09:01:45;;;;;;;;;;;;;;;18.86;46.31;100674.67;103496;1320;73760;-84
2022/04/26 09:04:18;;;;;;;;;;;;;;;18.86;46.27;100678.24;104154;1312;75031;-81
2022/04/26 09:06:50;;;;;;;;;;;;;;;18.86;46.18;100680.03;103708;1320;61652;-90
2022/04/26 09:10:00;;;;;;;;;;;;;;;18.86;46.15;100678.05;103680;1319;61305;-84
2022/04/26 09:13:01;;;;;;;;;;;;;;;;;;;;;
2022/04/26 09:15:35;;;;;;;;;;;;;;;18.86;46.29;100680.41;102910;1324;75893;-83
2022/04/26 09:18:47;;;;;;;;;;;;;;;18.85;46.31;100676.68;102552;1331;61552;-83
2022/04/26 09:21:34;;;;;;;;;;;;;;;18.85;46.28;100681.88;102560;1332;61480;-85
2022/04/26 09:27:48;;;;;;;;;;;;;;;18.86;46.33;100683.80;102472;1332;75815;-87
2022/04/26 09:30:36;;;;;;;;;;;;;;;18.85;46.29;100680.63;102287;1334;62154;-84
2022/04/26 09:33:52;;;;;;;;;;;;;;;18.85;46.26;100684.73;102326;1334;61865;-84
2022/04/26 09:36:29;;;;;;;;;;;;;;;18.85;46.31;100678.31;102131;1335;73784;-80
2022/04/26 09:39:41;;;;;;;;;;;;;;;18.85;46.32;100673.83;102089;1335;74864;-85
2022/04/26 09:42:50;;;;;;;;;;;;;;;18.86;46.35;100678.99;101827;1344;61556;-83
2022/04/26 09:45:30;;;;;;;;;;;;;;;18.86;46.32;100676.48;101915;1338;62254;-85
2022/04/26 09:48:19;;;;;;;;;;;;;;;18.86;46.31;100677.02;101969;1338;72747;-80
2022/04/26 09:51:18;;;;;;;;;;;;;;;;;;;;;
2022/04/26 09:53:48;;;;;;;;;;;;;;;18.86;46.33;100674.35;102456;1332;61339;-80
2022/04/26 09:56:49;;;;;;;;;;;;;;;18.86;46.36;100666.86;102687;1326;61340;-86
2022/04/26 10:00:09;;;;;;;;;;;;;;;;;;;;;
2022/04/26 10:02:53;;;;;;;;;;;;;;;18.86;46.23;100662.23;102719;1326;75655;-89
2022/04/26 10:05:32;;;;;;;;;;;;;;;18.86;46.23;100665.98;102570;1329;61349;-86
2022/04/26 10:08:21;;;;;;;;;;;;;;;18.86;46.29;100662.40;102717;1326;61759;-85
2022/04/26 10:11:02;;;;;;;;;;;;;;;;;;;;;
2022/04/26 10:13:48;;;;;;;;;;;;;;;18.85;46.20;100650.33;102668;1326;74805;-83
2022/04/26 10:16:38;;;;;;;;;;;;;;;18.85;46.20;100651.20;102775;1326;61275;-80
2022/04/26 10:19:52;;;;;;;;;;;;;;;18.85;46.31;100649.77;102487;1326;61330;-81
2022/04/26 10:22:48;;;;;;;;;;;;;;;;;;;;;
2022/04/26 10:25:35;;;;;;;;;;;;;;;;;;;;;
2022/04/26 10:28:29;;;;;;;;;;;;;;;;;;;;;
2022/04/26 10:31:19;;;;;;;;;;;;;;;18.85;46.21;100646.75;102785;1326;61319;-83
2022/04/26 10:34:07;;;;;;;;;;;;;;;;;;;;;
2022/04/26 10:36:56;;;;;;;;;;;;;;;18.84;46.27;100642.34;102525;1332;75959;-86
2022/04/26 10:39:50;;;;;;;;;;;;;;;;;;;;;
2022/04/26 10:43:01;;;;;;;;;;;;;;;;;;;;;
2022/04/26 10:45:46;;;;;;;;;;;;;;;18.85;46.24;100638.38;102740;1329;73958;-85
2022/04/26 10:48:37;;;;;;;;;;;;;;;18.85;46.28;100638.91;102622;1326;74869;-84
2022/04/26 10:51:34;;;;;;;;;;;;;;;;;;;;;
2022/04/26 10:56:03;;;;;;;;;;;;;;;;;;;;;
2022/04/26 10:58:37;;;;;;;;;;;;;;;18.85;46.17;100639.63;102951;1326;71524;-86
2022/04/26 11:01:14;;;;;;;;;;;;;;;18.85;46.17;100640.50;103043;1326;75290;-79
2022/04/26 11:04:38;;;;;;;;;;;;;;;;;;;;;
2022/04/26 11:07:33;;;;;;;;;;;;;;;18.86;46.19;100631.38;102727;1329;62480;-83
2022/04/26 11:11:15;;;;;;;;;;;;;;;18.86;46.19;100632.11;102741;1326;72910;-82
2022/04/26 11:14:26;;;;;;;;;;;;;;;18.86;46.29;100632.82;103040;1323;74839;-80
2022/04/26 11:16:48;;;;;;;;;;;;;;;18.86;46.30;100634.02;103050;1323;61174;-82
2022/04/26 11:19:43;;;;;;;;;;;;;;;;;;;;;
2022/04/26 11:22:29;;;;;;;;;;;;;;;18.87;46.15;100625.78;103187;1323;73976;-82
2022/04/26 11:28:45;;;;;;;;;;;;;;;18.87;46.19;100624.01;102594;1329;60213;-81
2022/04/26 11:31:48;;;;;;;;;;;;;;;18.87;46.22;100619.56;102408;1329;61163;-85
2022/04/26 11:34:38;;;;;;;;;;;;;;;18.87;46.20;100616.14;102523;1328;71700;-80
2022/04/26 11:37:09;;;;;;;;;;;;;;;18.87;46.21;100611.14;102415;1328;75058;-81
2022/04/26 11:40:31;;;;;;;;;;;;;;;18.88;46.19;100612.73;102523;1329;61414;-82
2022/04/26 11:44:03;;;;;;;;;;;;;;;18.88;46.23;100607.17;102753;1323;61541;-82
2022/04/26 11:46:57;;;;;;;;;;;;;;;;;;;;;
2022/04/26 11:50:01;;;;;;;;;;;;;;;18.89;46.15;100605.52;102640;1329;75135;-81
2022/04/26 11:53:02;;;;;;;;;;;;;;;18.89;46.20;100605.33;102352;1335;61464;-84
2022/04/26 11:55:51;;;;;;;;;;;;;;;18.91;46.18;100606.66;102401;1333;61535;-82
2022/04/26 11:58:41;;;;;;;;;;;;;;;18.91;46.14;100605.06;102054;1338;72895;-82
2022/04/26 12:01:25;;;;;;;;;;;;;;;18.90;46.12;100596.87;101789;1338;74948;-80
2022/04/26 12:04:36;;;;;;;;;;;;;;;18.91;46.07;100593.42;101863;1338;61304;-83
2022/04/26 12:07:25;;;;;;;;;;;;;;;18.91;45.96;100591.27;101934;1338;61265;-84
2022/04/26 12:10:39;;;;;;;;;;;;;;;18.92;46.08;100585.71;102080;1338;72671;-84
2022/04/26 12:13:34;;;;;;;;;;;;;;;18.92;46.13;100583.55;102072;1338;75077;-85
2022/04/26 12:16:32;;;;;;;;;;;;;;;18.92;46.04;100581.23;102021;1338;61705;-82
2022/04/26 12:19:22;;;;;;;;;;;;;;;18.93;46.01;100581.02;101854;1341;61483;-86
2022/04/26 12:22:12;;;;;;;;;;;;;;;18.93;46.02;100582.25;101834;1338;74135;-83
2022/04/26 12:25:22;;;;;;;;;;;;;;;18.93;45.96;100579.74;101818;1341;73525;-83
2022/04/26 12:28:35;;;;;;;;;;;;;;;18.94;45.97;100575.08;101932;1338;61373;-84
2022/04/26 12:31:42;;;;;;;;;;;;;;;18.95;46.01;100570.05;101756;1344;61689;-83
2022/04/26 12:34:36;;;;;;;;;;;;;;;18.95;45.92;100570.73;101549;1350;74182;-85
2022/04/26 12:37:58;;;;;;;;;;;;;;;18.96;46.01;100572.27;101730;1345;75769;-85
2022/04/26 12:41:05;;;;;;;;;;;;;;;18.96;45.98;100569.75;101805;1344;61520;-83
2022/04/26 12:43:52;;;;;;;;;;;;;;;18.97;45.99;100571.66;101917;1338;61525;-86
2022/04/26 12:46:40;;;;;;;;;;;;;;;18.98;45.94;100563.77;101918;1337;73785;-87
2022/04/26 12:53:21;;;;;;;;;;;;;;;18.99;45.87;100558.67;101678;1344;61799;-82
2022/04/26 12:55:27;;;;;;;;;;;;;;;19.00;45.89;100555.08;101693;1340;61384;-85
2022/04/26 12:58:21;;;;;;;;;;;;;;;19.00;45.93;100552.19;101872;1341;74615;-88
2022/04/26 13:01:18;;;;;;;;;;;;;;;19.01;45.87;100545.55;101871;1340;75904;-87
2022/04/26 13:04:04;;;;;;;;;;;;;;;19.01;45.83;100544.48;102362;1335;62523;-83
2022/04/26 13:07:24;;;;;;;;;;;;;;;19.02;45.84;100544.21;101983;1335;61718;-83
2022/04/26 13:10:08;;;;;;;;;;;;;;;19.03;45.89;100540.41;101797;1340;71943;-82
2022/04/26 13:12:44;;;;;;;;;;;;;;;19.03;45.82;100536.45;102306;1334;76764;-84
2022/04/26 13:15:25;;;;;;;;;;;;;;;;;;;;;
2022/04/26 13:18:05;;;;;;;;;;;;;;;19.05;45.77;100538.52;102447;1332;61531;-86
2022/04/26 13:20:58;;;;;;;;;;;;;;;19.05;45.80;100539.39;102488;1332;74020;-82
2022/04/26 13:23:38;;;;;;;;;;;;;;;;;;;;;
2022/04/26 13:26:26;;;;;;;;;;;;;;;19.06;45.75;100541.42;102536;1322;61439;-78
2022/04/26 13:29:14;;;;;;;;;;;;;;;;;;;;;
2022/04/26 13:31:51;;;;;;;;;;;;;;;;;;;;;
2022/04/26 13:34:51;;;;;;;;;;;;;;;19.08;45.79;100530.42;102950;1323;76141;-82
2022/04/26 13:37:27;;;;;;;;;;;;;;;;;;;;;
2022/04/26 13:40:25;;;;;;;;;;;;;;;19.10;45.77;100524.61;103059;1322;61575;-83
2022/04/26 13:43:04;;;;;;;;;;;;;;;19.11;45.68;100521.90;102995;1326;72940;-86
2022/04/26 13:45:59;;;;;;;;;;;;;;;19.11;45.58;100522.92;103855;1316;73718;-81
2022/04/26 13:48:57;;;;;;;;;;;;;;;;;;;;;
2022/04/26 13:51:32;;;;;;;;;;;;;;;19.12;45.66;100525.00;104791;1306;61138;-87
2022/04/26 13:54:47;;;;;;;;;;;;;;;19.13;45.58;100523.02;104609;1306;71585;-90
2022/04/26 13:57:44;;;;;;;;;;;;;;;;;;;;;
2022/04/26 14:00:30;;;;;;;;;;;;;;;19.14;45.68;100521.86;104882;1306;61287;-85
2022/04/26 14:03:45;;;;;;;;;;;;;;;19.15;45.57;100527.14;104884;1306;61140;-82
2022/04/26 14:06:13;;;;;;;;;;;;;;;19.15;45.64;100530.48;104849;1305;73006;-81
2022/04/26 14:08:48;;;;;;;;;;;;;;;;;;;;;
2022/04/26 14:11:24;;;;;;;;;;;;;;;19.16;45.83;100526.86;104745;1306;61045;-85
2022/04/26 14:23:36;;;;;;;;;;;;;;;19.18;45.44;100522.14;104754;1306;61230;-83
2022/04/26 14:26:42;;;;;;;;;;;;;;;19.17;45.47;100517.73;104742;1306;62021;-83
2022/04/26 14:32:48;;;;;;;;;;;;;;;19.17;45.46;100513.23;104030;1318;74580;-83
2022/04/26 14:35:25;;;;;;;;;;;;;;;;;;;;;
2022/04/26 14:38:42;;;;;;;;;;;;;;;;;;;;;
2022/04/26 14:44:42;;;;;;;;;;;;;;;;;;;;;
2022/04/26 14:47:28;;;;;;;;;;;;;;;19.20;45.41;100509.13;103100;1322;61304;-81
2022/04/26 14:50:18;;;;;;;;;;;;;;;;;;;;;
2022/04/26 14:52:53;;;;;;;;;;;;;;;19.22;45.51;100502.95;103177;1324;74012;-82
2022/04/26 14:55:44;;;;;;;;;;;;;;;19.22;45.30;100507.05;103151;1323;76099;-83
2022/04/26 14:58:12;;;;;;;;;;;;;;;19.23;45.33;100511.63;103175;1322;61378;-84
2022/04/26 15:01:20;;;;;;;;;;;;;;;19.24;45.26;100508.86;103114;1321;61172;-83
2022/04/26 15:04:25;;;;;;;;;;;;;;;19.25;45.34;100505.76;103460;1319;72945;-88
2022/04/26 15:07:12;;;;;;;;;;;;;;;19.26;45.39;100506.96;103475;1319;74872;-83
2022/04/26 15:09:43;;;;;;;;;;;;;;;19.26;45.44;100504.76;103719;1314;61239;-91
2022/04/26 15:19:04;;;;;;;;;;;;;;;19.28;45.30;100503.78;104564;1306;76370;-85
2022/04/26 15:22:13;;;;;;;;;;;;;;;19.29;45.37;100504.77;104744;1306;61307;-84
2022/04/26 15:25:04;;;;;;;;;;;;;;;;;;;;;
2022/04/26 15:28:00;;;;;;;;;;;;;;;19.30;45.11;100507.39;104652;1306;74010;-83
2022/04/26 15:30:40;;;;;;;;;;;;;;;19.30;45.31;100506.30;104516;1306;75215;-81
2022/04/26 15:33:14;;;;;;;;;;;;;;;19.31;45.37;100508.93;104676;1306;61250;-81
2022/04/26 15:35:57;;;;;;;;;;;;;;;19.31;45.33;100511.27;104542;1306;61277;-82
2022/04/26 15:38:45;;;;;;;;;;;;;;;19.31;45.27;100512.15;104758;1306;73787;-82
2022/04/26 15:41:12;;;;;;;;;;;;;;;19.31;45.24;100513.95;104879;1306;75616;-82
2022/04/26 15:43:48;;;;;;;;;;;;;;;19.30;45.33;100511.48;104900;1303;61299;-85
2022/04/26 15:46:27;;;;;;;;;;;;;;;19.30;45.13;100511.86;104533;1306;61182;-82
2022/04/26 15:49:02;;;;;;;;;;;;;;;19.29;45.05;100514.23;104579;1306;73035;-81
2022/04/26 15:51:41;;;;;;;;;;;;;;;19.28;45.19;100513.41;104810;1305;75752;-85
2022/04/26 15:54:29;;;;;;;;;;;;;;;;;;;;;
2022/04/26 15:57:07;;;;;;;;;;;;;;;19.26;45.22;100517.09;104608;1307;61472;-81
2022/04/26 16:00:10;;;;;;;;;;;;;;;19.25;45.18;100516.23;104555;1309;72898;-82
2022/04/26 16:03:08;;;;;;;;;;;;;;;;;;;;;
2022/04/26 16:05:55;;;;;;;;;;;;;;;19.24;45.31;100521.34;104312;1315;61158;-85
2022/04/26 16:08:35;;;;;;;;;;;;;;;19.23;45.09;100517.13;104322;1315;61330;-83
2022/04/26 16:20:48;;;;;;;;;;;;;;;19.20;45.19;100523.89;103216;1323;61415;-83
2022/04/26 16:23:56;;;;;;;;;;;;;;;;;;;;;
2022/04/26 16:26:42;;;;;;;;;;;;;;;19.19;45.15;100528.95;103200;1323;74820;-85
2022/04/26 16:29:40;;;;;;;;;;;;;;;19.19;45.19;100531.65;103197;1322;61190;-82
2022/04/26 16:32:29;;;;;;;;;;;;;;;19.19;45.14;100532.38;103050;1323;62800;-83
2022/04/26 16:35:34;;;;;;;;;;;;;;;;;;;;;
2022/04/26 16:38:21;;;;;;;;;;;;;;;19.18;45.19;100539.05;103280;1323;74882;-83
2022/04/26 16:41:10;;;;;;;;;;;;;;;19.17;45.25;100540.16;103282;1323;61634;-83
2022/04/26 16:43:39;;;;;;;;;;;;;;;19.17;45.07;100547.85;103866;1316;61191;-86
2022/04/26 16:46:43;;;;;;;;;;;;;;;19.17;45.07;100549.82;103914;1317;74144;-84
2022/04/26 16:49:27;;;;;;;;;;;;;;;19.17;45.12;100550.90;104074;1316;76695;-82
2022/04/26 16:52:43;;;;;;;;;;;;;;;19.17;45.18;100556.07;104457;1306;61320;-84
2022/04/26 16:55:22;;;;;;;;;;;;;;;;;;;;;
2022/04/26 16:58:06;;;;;;;;;;;;;;;19.16;45.28;100564.50;104575;1305;72243;-89
2022/04/26 17:01:04;;;;;;;;;;;;;;;19.16;45.29;100567.37;104707;1306;76125;-85
2022/04/26 17:04:02;;;;;;;;;;;;;;;;;;;;;
2022/04/26 17:06:49;;;;;;;;;;;;;;;19.15;45.19;100571.55;104676;1309;61420;-81
2022/04/26 17:09:39;;;;;;;;;;;;;;;19.15;45.08;100573.69;104613;1306;72862;-79
2022/04/26 17:12:34;;;;;;;;;;;;;;;19.15;45.08;100574.59;104831;1306;75909;-85
2022/04/26 17:15:36;;;;;;;;;;;;;;;19.14;45.05;100571.60;104061;1316;61222;-82
2022/04/26 17:18:19;;;;;;;;;;;;;;;19.15;44.99;100576.05;104189;1314;61190;-85
2022/04/26 17:21:16;;;;;;;;;;;;;;;19.14;45.05;100575.02;103966;1314;72573;-81
2022/04/26 17:24:04;;;;;;;;;;;;;;;;;;;;;
2022/04/26 17:26:50;;;;;;;;;;;;;;;19.14;45.08;100574.84;104133;1316;61175;-79
2022/04/26 17:29:19;;;;;;;;;;;;;;;19.14;45.16;100576.80;104040;1316;61391;-86
2022/04/26 17:31:57;;;;;;;;;;;;;;;19.14;45.03;100580.92;104103;1316;72829;-81
2022/04/26 17:34:51;;;;;;;;;;;;;;;19.14;45.14;100588.23;104006;1316;74961;-82
2022/04/26 17:37:53;;;;;;;;;;;;;;;;;;;;;
2022/04/26 17:40:41;;;;;;;;;;;;;;;19.13;45.11;100601.11;103981;1316;61869;-80
2022/04/26 17:43:18;;;;;;;;;;;;;;;;;;;;;
2022/04/26 17:46:11;;;;;;;;;;;;;;;19.14;45.16;100604.65;103848;1317;74901;-82
2022/04/26 17:48:47;;;;;;;;;;;;;;;19.13;45.08;100607.00;104021;1316;61428;-81
2022/04/26 17:51:37;;;;;;;;;;;;;;;;;;;;;
2022/04/26 17:57:30;;;;;;;;;;;;;;;19.13;45.06;100616.66;104678;1306;75835;-80
2022/04/26 18:00:09;;;;;;;;;;;;;;;;;;;;;
2022/04/26 18:02:57;;;;;;;;;;;;;;;19.12;45.02;100628.30;104724;1306;61291;-83
2022/04/26 18:05:40;;;;;;;;;;;;;;;19.12;44.95;100629.58;104614;1306;74119;-83
2022/04/26 18:08:36;;;;;;;;;;;;;;;;;;;;;
2022/04/26 18:11:32;;;;;;;;;;;;;;;19.11;44.97;100637.83;104056;1316;61167;-83
2022/04/26 18:14:18;;;;;;;;;;;;;;;19.10;45.00;100640.54;104223;1316;61362;-82
2022/04/26 18:16:53;;;;;;;;;;;;;;;19.09;45.03;100646.64;103824;1317;73854;-83
2022/04/26 18:19:47;;;;;;;;;;;;;;;19.09;44.98;100650.59;103933;1318;74814;-87
2022/04/26 18:22:33;;;;;;;;;;;;;;;19.09;45.02;100655.61;103294;1320;61317;-85
2022/04/26 18:26:10;;;;;;;;;;;;;;;;;;;;;
2022/04/26 18:28:15;;;;;;;;;;;;;;;19.08;45.07;100660.13;103396;1320;72878;-83
2022/04/26 18:31:19;;;;;;;;;;;;;;;19.07;44.99;100667.11;102739;1329;73807;-86
2022/04/26 18:34:08;;;;;;;;;;;;;;;19.07;45.04;100667.66;102782;1326;61326;-82
2022/04/26 18:36:55;;;;;;;;;;;;;;;;;;;;;
2022/04/26 18:39:25;;;;;;;;;;;;;;;19.07;44.99;100669.81;102761;1328;71872;-87
2022/04/26 18:42:29;;;;;;;;;;;;;;;19.07;45.02;100671.25;102715;1329;75978;-83
2022/04/26 18:44:57;;;;;;;;;;;;;;;19.06;45.02;100670.73;102670;1329;62167;-82
2022/04/26 18:48:03;;;;;;;;;;;;;;;19.06;45.02;100674.70;102642;1320;61335;-79
2022/04/26 18:50:42;;;;;;;;;;;;;;;;;;;;;
2022/04/26 18:53:16;;;;;;;;;;;;;;;19.06;44.92;100678.98;103260;1320;74924;-81
2022/04/26 18:56:10;;;;;;;;;;;;;;;;;;;;;
2022/04/26 18:58:47;;;;;;;;;;;;;;;19.06;44.89;100684.33;103331;1318;61468;-83
2022/04/26 19:01:52;;;;;;;;;;;;;;;19.06;45.09;100685.02;104184;1313;73492;-82
2022/04/26 19:04:44;;;;;;;;;;;;;;;;;;;;;
2022/04/26 19:07:40;;;;;;;;;;;;;;;19.06;44.98;100691.45;104068;1313;61294;-82
2022/04/26 19:13:36;;;;;;;;;;;;;;;19.06;45.03;100687.16;104432;1306;71550;-84
2022/04/26 19:16:21;;;;;;;;;;;;;;;19.06;45.04;100689.33;104518;1307;74944;-84
2022/04/26 19:19:08;;;;;;;;;;;;;;;19.06;45.08;100693.05;104564;1308;61637;-86
2022/04/26 19:21:51;;;;;;;;;;;;;;;19.06;45.04;100698.25;104585;1306;61185;-83
2022/04/26 19:24:25;;;;;;;;;;;;;;;19.06;45.00;100697.86;104615;1306;72700;-83
2022/04/26 19:27:35;;;;;;;;;;;;;;;19.06;44.98;100696.64;104673;1306;75748;-85
2022/04/26 19:30:24;;;;;;;;;;;;;;;19.05;45.07;100699.16;104653;1306;61170;-85
2022/04/26 19:33:07;;;;;;;;;;;;;;;19.05;44.99;100698.63;104136;1314;61296;-83
2022/04/26 19:36:09;;;;;;;;;;;;;;;19.05;44.95;100694.71;103954;1314;71616;-80
2022/04/26 19:38:50;;;;;;;;;;;;;;;19.05;45.03;100696.52;104176;1314;75062;-85
2022/04/26 19:41:37;;;;;;;;;;;;;;;19.05;44.96;100692.05;104198;1314;61379;-81
2022/04/26 19:44:12;;;;;;;;;;;;;;;19.05;44.93;100695.64;104200;1314;61473;-82
2022/04/26 19:47:19;;;;;;;;;;;;;;;;;;;;;
2022/04/26 19:53:07;;;;;;;;;;;;;;;19.05;44.98;100696.71;103990;1314;61497;-80
2022/04/26 19:55:41;;;;;;;;;;;;;;;19.05;45.06;100691.53;103944;1315;61181;-80
2022/04/26 19:58:34;;;;;;;;;;;;;;;19.04;44.99;100692.98;104028;1314;73851;-80
2022/04/26 20:01:16;;;;;;;;;;;;;;;19.05;45.15;100691.17;104123;1314;75642;-81
2022/04/26 20:04:22;;;;;;;;;;;;;;;19.05;45.15;100689.92;103321;1320;61193;-83
2022/04/26 20:07:26;;;;;;;;;;;;;;;19.05;45.18;100691.55;103400;1320;61731;-83
2022/04/26 20:10:29;;;;;;;;;;;;;;;19.05;45.12;100692.27;103045;1320;73963;-83
2022/04/26 20:13:24;;;;;;;;;;;;;;;19.05;45.10;100698.85;103311;1323;75845;-82
2022/04/26 20:15:52;;;;;;;;;;;;;;;19.05;44.99;100695.30;103543;1318;61247;-84
2022/04/26 20:18:47;;;;;;;;;;;;;;;19.05;45.09;100698.84;103494;1319;61779;-80
2022/04/26 20:21:46;;;;;;;;;;;;;;;;;;;;;
2022/04/26 20:24:47;;;;;;;;;;;;;;;;;;;;;
2022/04/26 20:30:49;;;;;;;;;;;;;;;19.04;44.98;100709.27;103541;1319;61351;-82
2022/04/26 20:33:45;;;;;;;;;;;;;;;19.03;45.13;100711.79;102792;1326;73766;-87
2022/04/26 20:36:40;;;;;;;;;;;;;;;19.03;45.14;100709.65;102806;1325;73901;-86
2022/04/26 20:42:31;;;;;;;;;;;;;;;19.03;45.13;100711.63;102642;1329;61596;-83
2022/04/26 20:45:23;;;;;;;;;;;;;;;19.03;45.15;100714.48;102704;1328;73440;-82
2022/04/26 20:48:15;;;;;;;;;;;;;;;19.03;45.21;100714.48;102610;1329;76039;-84
2022/04/26 20:51:05;;;;;;;;;;;;;;;19.03;45.21;100714.30;102687;1329;61194;-84
2022/04/26 20:53:50;;;;;;;;;;;;;;;19.02;45.13;100713.45;102688;1329;61564;-81
2022/04/26 20:57:04;;;;;;;;;;;;;;;19.03;45.21;100715.93;102715;1329;71598;-85
2022/04/26 21:00:24;;;;;;;;;;;;;;;19.03;45.19;100715.02;102141;1335;74866;-82
2022/04/26 21:02:37;;;;;;;;;;;;;;;19.02;45.24;100713.28;102217;1334;61625;-82
2022/04/26 21:05:24;;;;;;;;;;;;;;;;;;;;;
2022/04/26 21:08:12;;;;;;;;;;;;;;;19.03;45.22;100713.26;102139;1335;71651;-83
2022/04/26 21:11:18;;;;;;;;;;;;;;;19.02;45.21;100713.64;102406;1329;73841;-82
2022/04/26 21:14:16;;;;;;;;;;;;;;;19.02;45.24;100714.90;102726;1329;62477;-82
2022/04/26 21:17:05;;;;;;;;;;;;;;;19.02;45.28;100719.19;102747;1328;61346;-83
2022/04/26 21:20:13;;;;;;;;;;;;;;;19.02;45.21;100722.06;102910;1323;71633;-83
2022/04/26 21:26:07;;;;;;;;;;;;;;;;;;;;;
2022/04/26 21:29:20;;;;;;;;;;;;;;;19.02;45.22;100727.77;102947;1326;61173;-83
2022/04/26 21:32:16;;;;;;;;;;;;;;;;;;;;;
2022/04/26 21:35:39;;;;;;;;;;;;;;;;;;;;;